Time;durP1;ratioP1;P1;durP2;ratioP2;P2;SDS_P1;SDS_P2;PMS_P1;PMS_P2;Temp;Humidity;BMP_temperature;BMP_pressure;BME280_temperature;BME280_humidity;BME280_pressure;Samples;Min_cycle;Max_cycle;Signal;HPM_P1;HPM_P2
2021/10/26 00:02:02;;;;;;;39.83;35.83;;;;;;;;;;5095828;28;20465;-86
2021/10/26 00:04:29;;;;;;;39.83;36.30;;;;;;;;;;5096070;28;20427;-86
2021/10/26 00:06:57;;;;;;;40.57;36.70;;;;;;;;;;5095699;28;20407;-86
2021/10/26 00:09:24;;;;;;;41.17;37.27;;;;;;;;;;5095715;28;20404;-86
2021/10/26 00:11:52;;;;;;;43.50;39.30;;;;;;;;;;5095813;28;20502;-86
2021/10/26 00:14:21;;;;;;;40.37;36.77;;;;;;;;;;5095581;28;20452;-86
2021/10/26 00:16:49;;;;;;;41.47;37.60;;;;;;;;;;5095183;28;20445;-85
2021/10/26 00:19:17;;;;;;;42.57;38.57;;;;;;;;;;5095153;28;20459;-86
2021/10/26 00:21:44;;;;;;;42.20;38.07;;;;;;;;;;5095473;28;20434;-85
2021/10/26 00:24:12;;;;;;;44.93;40.60;;;;;;;;;;5095407;28;20422;-86
2021/10/26 00:26:39;;;;;;;46.73;41.80;;;;;;;;;;5095104;28;20407;-87
2021/10/26 00:29:07;;;;;;;44.90;40.53;;;;;;;;;;5095674;28;20423;-86
2021/10/26 00:31:35;;;;;;;47.70;42.90;;;;;;;;;;5095073;28;20441;-86
2021/10/26 00:34:04;;;;;;;46.20;41.00;;;;;;;;;;5094989;28;20452;-86
2021/10/26 00:36:32;;;;;;;47.10;42.30;;;;;;;;;;5095218;28;20447;-86
2021/10/26 00:38:59;;;;;;;51.20;45.70;;;;;;;;;;5094305;28;20445;-86
2021/10/26 00:41:27;;;;;;;48.77;43.67;;;;;;;;;;5094799;28;20822;-86
2021/10/26 00:43:54;;;;;;;51.33;44.10;;;;;;;;;;5094449;28;20416;-86
2021/10/26 00:46:29;;;;;;;48.70;43.50;;;;;;;;;;5094329;28;20803;-86
2021/10/26 00:48:59;;;;;;;49.43;44.40;;;;;;;;;;5094361;28;20577;-86
2021/10/26 00:51:28;;;;;;;51.87;45.10;;;;;;;;;;5093410;28;20472;-86
2021/10/26 00:53:56;;;;;;;54.77;44.60;;;;;;;;;;5095067;28;20408;-85
2021/10/26 00:56:24;;;;;;;50.27;43.37;;;;;;;;;;5094713;28;20499;-84
2021/10/26 00:58:52;;;;;;;46.40;41.33;;;;;;;;;;5094443;28;20451;-85
2021/10/26 01:01:19;;;;;;;48.47;43.17;;;;;;;;;;5094850;28;20434;-86
2021/10/26 01:03:46;;;;;;;49.40;44.23;;;;;;;;;;5094822;28;20792;-86
2021/10/26 01:06:16;;;;;;;49.53;44.37;;;;;;;;;;5094797;28;20816;-86
2021/10/26 01:08:43;;;;;;;51.30;45.87;;;;;;;;;;5094409;28;20446;-86
2021/10/26 01:11:11;;;;;;;53.77;45.10;;;;;;;;;;5094449;28;20444;-86
2021/10/26 01:13:38;;;;;;;47.90;42.80;;;;;;;;;;5094487;28;20911;-86
2021/10/26 01:16:06;;;;;;;50.17;42.23;;;;;;;;;;5094301;28;20930;-85
2021/10/26 01:18:33;;;;;;;49.80;44.50;;;;;;;;;;5094289;28;20457;-86
2021/10/26 01:21:02;;;;;;;47.90;43.07;;;;;;;;;;5093060;28;20451;-87
2021/10/26 01:23:30;;;;;;;47.10;42.10;;;;;;;;;;5093093;28;20448;-86
2021/10/26 01:25:57;;;;;;;49.57;44.27;;;;;;;;;;5094553;28;20436;-86
2021/10/26 01:28:25;;;;;;;49.57;44.20;;;;;;;;;;5094254;28;20915;-87
2021/10/26 01:30:52;;;;;;;51.90;44.63;;;;;;;;;;5094336;28;20412;-86
2021/10/26 01:33:19;;;;;;;50.23;45.00;;;;;;;;;;5094335;28;20942;-86
2021/10/26 01:35:47;;;;;;;47.30;42.40;;;;;;;;;;5093899;28;20412;-86
2021/10/26 01:38:15;;;;;;;50.47;43.07;;;;;;;;;;5094232;28;20448;-86
2021/10/26 01:40:43;;;;;;;57.17;42.97;;;;;;;;;;5094156;28;20491;-86
2021/10/26 01:43:11;;;;;;;54.50;44.37;;;;;;;;;;5094064;28;20451;-85
2021/10/26 01:45:38;;;;;;;50.53;43.27;;;;;;;;;;5093993;28;20447;-87
2021/10/26 01:48:06;;;;;;;51.37;45.77;;;;;;;;;;5093956;28;20403;-87
2021/10/26 01:50:33;;;;;;;51.03;45.17;;;;;;;;;;5093599;28;20813;-86
2021/10/26 01:53:00;;;;;;;51.20;45.77;;;;;;;;;;5094225;28;20407;-86
2021/10/26 01:55:29;;;;;;;46.70;41.80;;;;;;;;;;5094047;28;20445;-86
2021/10/26 01:57:57;;;;;;;46.53;41.47;;;;;;;;;;5094121;28;20440;-85
2021/10/26 02:00:24;;;;;;;47.63;42.17;;;;;;;;;;5092249;28;20937;-86
2021/10/26 02:02:52;;;;;;;47.63;42.03;;;;;;;;;;5093805;28;20448;-86
2021/10/26 02:05:19;;;;;;;44.67;40.27;;;;;;;;;;5093983;28;20528;-86
2021/10/26 02:07:47;;;;;;;45.17;40.27;;;;;;;;;;5093668;28;20419;-86
2021/10/26 02:10:16;;;;;;;47.77;42.77;;;;;;;;;;5093762;28;20456;-86
2021/10/26 02:12:44;;;;;;;46.20;40.53;;;;;;;;;;5093852;28;20447;-86
2021/10/26 02:15:12;;;;;;;45.47;41.00;;;;;;;;;;5094095;28;20418;-86
2021/10/26 02:17:39;;;;;;;44.67;39.93;;;;;;;;;;5092702;28;20445;-86
2021/10/26 02:20:07;;;;;;;43.20;39.10;;;;;;;;;;5093807;28;20783;-86
2021/10/26 02:22:34;;;;;;;44.10;39.57;;;;;;;;;;5093819;28;20464;-86
2021/10/26 02:25:02;;;;;;;45.47;40.67;;;;;;;;;;5093741;28;20428;-86
2021/10/26 02:27:29;;;;;;;46.00;41.37;;;;;;;;;;5093379;28;20457;-87
2021/10/26 02:29:58;;;;;;;44.57;40.10;;;;;;;;;;5092402;28;20419;-86
2021/10/26 02:32:25;;;;;;;46.47;41.60;;;;;;;;;;5093777;28;20465;-86
2021/10/26 02:34:53;;;;;;;45.33;40.30;;;;;;;;;;5093480;28;20419;-86
2021/10/26 02:37:20;;;;;;;46.17;41.37;;;;;;;;;;5093744;28;20430;-86
2021/10/26 02:39:47;;;;;;;46.00;41.07;;;;;;;;;;5093393;28;20474;-86
2021/10/26 02:42:15;;;;;;;46.43;39.40;;;;;;;;;;5093652;28;20418;-85
2021/10/26 02:44:43;;;;;;;44.87;40.07;;;;;;;;;;5093661;28;20835;-86
2021/10/26 02:47:12;;;;;;;44.90;40.40;;;;;;;;;;5093504;28;20435;-86
2021/10/26 02:49:39;;;;;;;46.17;41.37;;;;;;;;;;5093406;28;20440;-85
2021/10/26 02:52:07;;;;;;;42.83;38.47;;;;;;;;;;5093472;28;20519;-86
2021/10/26 02:54:34;;;;;;;44.33;39.80;;;;;;;;;;5093390;28;20415;-85
2021/10/26 02:57:01;;;;;;;44.30;39.80;;;;;;;;;;5093558;28;20446;-86
2021/10/26 02:59:29;;;;;;;46.20;41.33;;;;;;;;;;5093205;28;20487;-86
2021/10/26 03:01:56;;;;;;;42.23;37.90;;;;;;;;;;5093623;28;20450;-86
2021/10/26 03:04:25;;;;;;;43.37;38.97;;;;;;;;;;5096987;28;20817;-86
2021/10/26 03:06:52;;;;;;;42.53;38.13;;;;;;;;;;5096994;28;20416;-86
2021/10/26 03:09:20;;;;;;;45.00;38.57;;;;;;;;;;5096615;28;20429;-86
2021/10/26 03:11:47;;;;;;;43.97;39.77;;;;;;;;;;5096834;28;20420;-86
2021/10/26 03:14:14;;;;;;;42.33;38.13;;;;;;;;;;5096810;28;20419;-86
2021/10/26 03:16:42;;;;;;;41.33;37.27;;;;;;;;;;5095946;28;20433;-86
2021/10/26 03:19:09;;;;;;;41.57;37.37;;;;;;;;;;5096212;28;20423;-86
2021/10/26 03:21:39;;;;;;;39.33;35.50;;;;;;;;;;5095958;28;20476;-87
2021/10/26 03:24:07;;;;;;;40.70;36.80;;;;;;;;;;5096340;28;20437;-86
2021/10/26 03:26:34;;;;;;;40.13;36.20;;;;;;;;;;5096647;28;20415;-86
2021/10/26 03:29:02;;;;;;;39.87;35.93;;;;;;;;;;5096435;28;20425;-86
2021/10/26 03:31:29;;;;;;;42.03;38.03;;;;;;;;;;5095234;28;20423;-87
2021/10/26 03:33:57;;;;;;;40.93;36.90;;;;;;;;;;5096556;28;20977;-86
2021/10/26 03:36:25;;;;;;;40.90;36.80;;;;;;;;;;5096561;28;20449;-86
2021/10/26 03:38:54;;;;;;;39.90;36.10;;;;;;;;;;5096481;28;20412;-86
2021/10/26 03:41:21;;;;;;;41.27;37.20;;;;;;;;;;5096083;28;20834;-86
2021/10/26 03:43:48;;;;;;;43.93;39.83;;;;;;;;;;5095875;28;20423;-86
2021/10/26 03:46:16;;;;;;;42.97;38.87;;;;;;;;;;5096388;28;20408;-86
2021/10/26 03:48:43;;;;;;;41.40;37.33;;;;;;;;;;5096236;28;20445;-86
2021/10/26 03:51:11;;;;;;;41.70;36.80;;;;;;;;;;5095467;28;20475;-86
2021/10/26 03:53:39;;;;;;;40.60;36.97;;;;;;;;;;5096223;28;20498;-85
2021/10/26 03:56:08;;;;;;;40.40;36.53;;;;;;;;;;5095898;28;20435;-86
2021/10/26 03:58:36;;;;;;;38.17;34.67;;;;;;;;;;5095809;28;20431;-86
2021/10/26 04:01:04;;;;;;;41.80;37.97;;;;;;;;;;5096116;28;20471;-86
2021/10/26 04:03:31;;;;;;;42.30;37.57;;;;;;;;;;5095655;28;20408;-86
2021/10/26 04:06:02;;;;;;;39.17;35.33;;;;;;;;;;5095852;28;20400;-86
2021/10/26 04:08:34;;;;;;;40.10;36.20;;;;;;;;;;5095617;28;20552;-85
2021/10/26 04:11:04;;;;;;;41.43;37.13;;;;;;;;;;5095686;28;20482;-84
2021/10/26 04:13:32;;;;;;;39.90;36.07;;;;;;;;;;5094536;28;20476;-85
2021/10/26 04:16:00;;;;;;;38.73;35.10;;;;;;;;;;5095387;28;20408;-85
2021/10/26 04:18:28;;;;;;;41.07;37.07;;;;;;;;;;5095117;28;20954;-85
2021/10/26 04:20:55;;;;;;;40.07;36.40;;;;;;;;;;5095055;28;20965;-85
2021/10/26 04:23:23;;;;;;;40.80;36.97;;;;;;;;;;5095409;28;20434;-85
2021/10/26 04:25:50;;;;;;;39.83;36.13;;;;;;;;;;5095221;28;20427;-84
2021/10/26 04:28:18;;;;;;;41.20;36.70;;;;;;;;;;5095138;28;20425;-85
2021/10/26 04:30:47;;;;;;;41.10;37.00;;;;;;;;;;5094850;28;20425;-85
2021/10/26 04:33:14;;;;;;;39.57;35.90;;;;;;;;;;5095133;28;20444;-84
2021/10/26 04:35:42;;;;;;;40.00;36.20;;;;;;;;;;5094878;28;20400;-85
2021/10/26 04:38:09;;;;;;;40.50;36.50;;;;;;;;;;5094978;28;20429;-85
2021/10/26 04:40:37;;;;;;;39.57;35.77;;;;;;;;;;5094706;28;20487;-85
2021/10/26 04:43:04;;;;;;;42.17;38.37;;;;;;;;;;5094946;28;20408;-85
2021/10/26 04:45:32;;;;;;;39.53;35.70;;;;;;;;;;5094677;28;20444;-85
2021/10/26 04:48:01;;;;;;;39.43;35.80;;;;;;;;;;5094621;28;20528;-85
2021/10/26 04:50:32;;;;;;;41.50;37.67;;;;;;;;;;5094529;28;20447;-85
2021/10/26 04:52:59;;;;;;;41.47;37.47;;;;;;;;;;5094843;27;20956;-85
2021/10/26 04:55:27;;;;;;;37.97;34.50;;;;;;;;;;5094481;28;20885;-84
2021/10/26 04:57:54;;;;;;;39.37;35.43;;;;;;;;;;5094203;28;20890;-85
2021/10/26 05:00:22;;;;;;;39.93;36.23;;;;;;;;;;5094271;28;20465;-85
2021/10/26 05:02:49;;;;;;;42.00;38.00;;;;;;;;;;5094735;28;20778;-85
2021/10/26 05:05:18;;;;;;;42.63;38.40;;;;;;;;;;5094074;28;20422;-86
2021/10/26 05:07:45;;;;;;;41.20;37.40;;;;;;;;;;5094574;28;20968;-85
2021/10/26 05:10:13;;;;;;;42.00;37.87;;;;;;;;;;5094503;28;20514;-85
2021/10/26 05:12:40;;;;;;;40.07;36.20;;;;;;;;;;5093323;28;20460;-85
2021/10/26 05:15:08;;;;;;;41.27;37.33;;;;;;;;;;5094066;28;20437;-85
2021/10/26 05:17:37;;;;;;;41.93;37.77;;;;;;;;;;5094276;28;20429;-85
2021/10/26 05:20:06;;;;;;;44.27;39.37;;;;;;;;;;5094436;28;20433;-84
2021/10/26 05:22:34;;;;;;;42.50;38.27;;;;;;;;;;5094304;28;20642;-86
2021/10/26 05:25:02;;;;;;;41.50;37.23;;;;;;;;;;5093964;28;20787;-85
2021/10/26 05:27:29;;;;;;;42.97;38.77;;;;;;;;;;5094083;28;20420;-85
2021/10/26 05:29:57;;;;;;;42.00;38.07;;;;;;;;;;5094159;28;20448;-85
2021/10/26 05:32:24;;;;;;;41.40;37.33;;;;;;;;;;5094084;28;20423;-85
2021/10/26 05:34:51;;;;;;;42.03;38.03;;;;;;;;;;5093956;28;20433;-85
2021/10/26 05:37:19;;;;;;;40.00;36.10;;;;;;;;;;5093826;28;20416;-85
2021/10/26 05:39:48;;;;;;;38.37;34.77;;;;;;;;;;5093776;28;20431;-86
2021/10/26 05:42:15;;;;;;;40.97;36.70;;;;;;;;;;5093616;28;20483;-85
2021/10/26 05:44:42;;;;;;;40.23;36.53;;;;;;;;;;5094073;28;20441;-85
2021/10/26 05:47:10;;;;;;;41.57;37.67;;;;;;;;;;5094055;28;20453;-85
2021/10/26 05:49:38;;;;;;;39.27;35.20;;;;;;;;;;5093828;28;20448;-85
2021/10/26 05:52:05;;;;;;;41.93;37.50;;;;;;;;;;5093273;28;20451;-85
2021/10/26 05:54:33;;;;;;;41.60;37.63;;;;;;;;;;5093255;28;20440;-86
2021/10/26 05:57:03;;;;;;;40.07;36.03;;;;;;;;;;5093393;28;20416;-84
2021/10/26 05:59:30;;;;;;;41.70;37.50;;;;;;;;;;5093103;28;20459;-85
2021/10/26 06:01:57;;;;;;;41.47;37.10;;;;;;;;;;5093445;28;20480;-84
2021/10/26 06:04:24;;;;;;;40.57;36.37;;;;;;;;;;5093869;28;20434;-87
2021/10/26 06:06:52;;;;;;;40.37;36.33;;;;;;;;;;5093941;28;20437;-87
2021/10/26 06:09:19;;;;;;;39.80;35.40;;;;;;;;;;5093798;28;20472;-86
2021/10/26 06:11:49;;;;;;;40.60;36.40;;;;;;;;;;5093413;28;20515;-85
2021/10/26 06:14:18;;;;;;;41.60;37.80;;;;;;;;;;5093944;28;20404;-84
2021/10/26 06:16:45;;;;;;;41.90;37.43;;;;;;;;;;5093638;28;20418;-83
2021/10/26 06:19:12;;;;;;;40.53;36.10;;;;;;;;;;5093631;28;20441;-86
2021/10/26 06:21:40;;;;;;;43.43;38.90;;;;;;;;;;5093239;28;20459;-85
2021/10/26 06:24:07;;;;;;;42.13;37.77;;;;;;;;;;5093599;28;20511;-85
2021/10/26 06:26:35;;;;;;;41.77;37.50;;;;;;;;;;5093506;28;20452;-84
2021/10/26 06:29:02;;;;;;;40.47;36.53;;;;;;;;;;5092347;28;20428;-85
2021/10/26 06:31:31;;;;;;;41.60;37.30;;;;;;;;;;5093786;28;20460;-86
2021/10/26 06:33:59;;;;;;;40.37;36.23;;;;;;;;;;5093672;28;20520;-86
2021/10/26 06:36:26;;;;;;;42.53;38.03;;;;;;;;;;5093524;28;20435;-85
2021/10/26 06:38:53;;;;;;;41.00;36.77;;;;;;;;;;5097422;28;20476;-88
2021/10/26 06:41:21;;;;;;;40.83;36.83;;;;;;;;;;5097730;28;20451;-91
2021/10/26 06:43:48;;;;;;;46.90;39.03;;;;;;;;;;5098200;28;20423;-86
2021/10/26 06:46:17;;;;;;;42.50;37.90;;;;;;;;;;5097438;28;20436;-86
2021/10/26 06:48:46;;;;;;;40.40;36.17;;;;;;;;;;5097573;28;20469;-85
2021/10/26 06:51:13;;;;;;;40.60;36.77;;;;;;;;;;5097337;28;20454;-87
2021/10/26 06:53:40;;;;;;;40.53;36.23;;;;;;;;;;5097403;28;20767;-87
2021/10/26 06:56:14;;;;;;;40.30;36.53;;;;;;;;;;5096014;28;20425;-86
2021/10/26 06:58:41;;;;;;;42.70;38.43;;;;;;;;;;5097134;28;20490;-86
2021/10/26 07:01:09;;;;;;;40.13;36.10;;;;;;;;;;5096978;28;20453;-87
2021/10/26 07:03:36;;;;;;;43.77;39.33;;;;;;;;;;5097310;28;20447;-86
2021/10/26 07:06:06;;;;;;;41.93;37.93;;;;;;;;;;5097185;28;20407;-87
2021/10/26 07:08:35;;;;;;;46.53;38.30;;;;;;;;;;5097147;28;20795;-86
2021/10/26 07:11:03;;;;;;;43.90;39.60;;;;;;;;;;5097224;28;20439;-86
2021/10/26 07:13:32;;;;;;;41.37;37.27;;;;;;;;;;5096990;28;20444;-87
2021/10/26 07:16:00;;;;;;;42.53;38.07;;;;;;;;;;5096570;28;20411;-86
2021/10/26 07:18:27;;;;;;;43.33;38.97;;;;;;;;;;5096538;28;20456;-86
2021/10/26 07:20:54;;;;;;;43.60;39.13;;;;;;;;;;5096813;28;20639;-87
2021/10/26 07:23:24;;;;;;;43.97;39.80;;;;;;;;;;5095604;28;20826;-87
2021/10/26 07:25:51;;;;;;;44.23;39.80;;;;;;;;;;5096574;28;20418;-87
2021/10/26 07:28:20;;;;;;;48.63;41.73;;;;;;;;;;5096597;28;20510;-87
2021/10/26 07:30:47;;;;;;;45.97;41.40;;;;;;;;;;5095038;28;20453;-85
2021/10/26 07:33:18;;;;;;;48.37;43.10;;;;;;;;;;5096166;28;20427;-85
2021/10/26 07:35:47;;;;;;;48.23;43.20;;;;;;;;;;5096514;28;20448;-85
2021/10/26 07:38:25;;;;;;;50.50;43.03;;;;;;;;;;5096726;28;20407;-86
2021/10/26 07:40:53;;;;;;;46.67;41.67;;;;;;;;;;5096542;28;20407;-86
2021/10/26 07:43:21;;;;;;;47.37;41.53;;;;;;;;;;5096521;28;20488;-87
2021/10/26 07:45:48;;;;;;;49.07;42.37;;;;;;;;;;5096877;28;20429;-88
2021/10/26 07:48:16;;;;;;;44.87;40.37;;;;;;;;;;5096176;28;20457;-87
2021/10/26 07:50:45;;;;;;;43.60;39.20;;;;;;;;;;5096335;28;20480;-85
2021/10/26 07:53:12;;;;;;;45.83;41.07;;;;;;;;;;5096451;28;20419;-87
2021/10/26 07:55:40;;;;;;;44.53;40.40;;;;;;;;;;5096426;28;20448;-87
2021/10/26 07:58:08;;;;;;;44.30;39.87;;;;;;;;;;5095964;27;20442;-87
2021/10/26 08:00:36;;;;;;;43.87;39.30;;;;;;;;;;5095585;28;20451;-87
2021/10/26 08:03:03;;;;;;;47.33;42.63;;;;;;;;;;5096057;28;20455;-87
2021/10/26 08:05:31;;;;;;;43.57;38.93;;;;;;;;;;5096098;28;20435;-87
2021/10/26 08:07:59;;;;;;;43.63;38.83;;;;;;;;;;5095930;28;20449;-87
2021/10/26 08:10:27;;;;;;;44.53;39.90;;;;;;;;;;5095610;28;20911;-88
2021/10/26 08:12:54;;;;;;;44.43;39.93;;;;;;;;;;5096057;28;20540;-86
2021/10/26 08:15:23;;;;;;;46.83;41.83;;;;;;;;;;5096487;28;20516;-86
2021/10/26 08:17:51;;;;;;;42.87;38.70;;;;;;;;;;5096286;28;20767;-83
2021/10/26 08:20:18;;;;;;;44.30;39.70;;;;;;;;;;5096746;28;20894;-89
2021/10/26 08:22:46;;;;;;;42.50;38.20;;;;;;;;;;5095037;28;20515;-87
2021/10/26 08:25:19;;;;;;;48.33;43.07;;;;;;;;;;5095709;28;20423;-94
2021/10/26 08:27:47;;;;;;;39.53;35.73;;;;;;;;;;5095060;28;20541;-86
2021/10/26 08:30:17;;;;;;;41.87;35.13;;;;;;;;;;5094906;28;20416;-84
2021/10/26 08:35:27;;;;;;;40.60;36.37;;;;;;;;;;5095760;28;20486;-92
2021/10/26 08:37:58;;;;;;;43.37;35.80;;;;;;;;;;5095914;28;20424;-89
2021/10/26 08:40:25;;;;;;;39.90;35.77;;;;;;;;;;5094034;28;20782;-90
2021/10/26 08:42:56;;;;;;;43.33;36.00;;;;;;;;;;5094862;28;20476;-86
2021/10/26 08:45:24;;;;;;;40.67;36.73;;;;;;;;;;5094996;28;20434;-84
2021/10/26 08:47:54;;;;;;;43.47;39.10;;;;;;;;;;5095543;28;20412;-89
2021/10/26 08:50:21;;;;;;;39.93;36.23;;;;;;;;;;5095319;28;20446;-89
2021/10/26 08:52:49;;;;;;;41.83;37.37;;;;;;;;;;5095323;28;20424;-89
2021/10/26 08:55:17;;;;;;;39.40;35.60;;;;;;;;;;5095055;28;20452;-86
2021/10/26 08:57:45;;;;;;;39.83;36.07;;;;;;;;;;5094716;28;20445;-85
2021/10/26 09:00:16;;;;;;;38.70;34.80;;;;;;;;;;5094300;28;20459;-89
2021/10/26 09:02:46;;;;;;;38.30;34.43;;;;;;;;;;5094107;28;20484;-86
2021/10/26 09:05:16;;;;;;;38.43;35.00;;;;;;;;;;5096590;28;20419;-85
2021/10/26 09:07:59;;;;;;;37.53;34.10;;;;;;;;;;5093456;28;20497;-92
2021/10/26 09:10:29;;;;;;;36.77;33.37;;;;;;;;;;5093900;28;20882;-83
2021/10/26 09:18:35;;;;;;;33.23;29.93;;;;;;;;;;5093808;28;20486;-83
2021/10/26 09:21:04;;;;;;;35.53;32.27;;;;;;;;;;5093938;28;20456;-86
2021/10/26 09:23:31;;;;;;;32.97;30.10;;;;;;;;;;5094162;28;20467;-82
2021/10/26 09:25:59;;;;;;;32.60;29.73;;;;;;;;;;5093524;28;20452;-82
2021/10/26 09:28:27;;;;;;;36.57;33.13;;;;;;;;;;5094346;28;20412;-85
2021/10/26 09:31:06;;;;;;;32.67;29.50;;;;;;;;;;5093420;28;20444;-81
2021/10/26 09:33:34;;;;;;;34.50;31.40;;;;;;;;;;5093244;28;20418;-83
2021/10/26 09:36:20;;;;;;;29.17;26.80;;;;;;;;;;5092145;28;21023;-82
2021/10/26 09:38:49;;;;;;;32.13;29.40;;;;;;;;;;5093496;28;20441;-82
2021/10/26 09:41:17;;;;;;;34.10;31.20;;;;;;;;;;5092912;28;20412;-80
2021/10/26 09:43:44;;;;;;;33.47;30.80;;;;;;;;;;5092829;28;20516;-81
2021/10/26 09:46:12;;;;;;;35.07;31.70;;;;;;;;;;5093289;28;20412;-82
2021/10/26 09:48:39;;;;;;;32.83;29.83;;;;;;;;;;5093209;28;20461;-83
2021/10/26 09:51:09;;;;;;;34.87;32.03;;;;;;;;;;5093185;28;20443;-82
2021/10/26 09:53:38;;;;;;;33.23;30.03;;;;;;;;;;5093290;28;20430;-82
2021/10/26 09:56:12;;;;;;;33.20;30.33;;;;;;;;;;5092933;28;20463;-81
2021/10/26 09:58:40;;;;;;;32.60;29.57;;;;;;;;;;5092993;28;20414;-82
2021/10/26 10:01:09;;;;;;;32.50;29.87;;;;;;;;;;5091679;28;20411;-82
2021/10/26 10:03:37;;;;;;;33.27;30.37;;;;;;;;;;5092559;28;20948;-82
2021/10/26 10:06:06;;;;;;;32.67;29.73;;;;;;;;;;5093072;28;20461;-82
2021/10/26 10:08:34;;;;;;;31.33;28.50;;;;;;;;;;5093125;28;20411;-82
2021/10/26 10:11:13;;;;;;;30.30;27.33;;;;;;;;;;5093729;28;20400;-87
2021/10/26 10:13:41;;;;;;;31.83;29.03;;;;;;;;;;5097727;28;20419;-87
2021/10/26 10:16:12;;;;;;;31.47;28.60;;;;;;;;;;5097825;28;20404;-87
2021/10/26 10:18:39;;;;;;;29.47;26.97;;;;;;;;;;5095711;28;20948;-82
2021/10/26 10:21:08;;;;;;;30.60;28.00;;;;;;;;;;5097167;28;20874;-83
2021/10/26 10:23:36;;;;;;;30.10;27.80;;;;;;;;;;5096695;28;20466;-82
2021/10/26 10:26:04;;;;;;;31.20;28.50;;;;;;;;;;5095714;28;20443;-81
2021/10/26 10:28:34;;;;;;;30.97;28.70;;;;;;;;;;5097033;28;20407;-82
2021/10/26 10:31:03;;;;;;;29.10;26.90;;;;;;;;;;5096602;28;20440;-82
2021/10/26 10:33:31;;;;;;;31.30;28.63;;;;;;;;;;5096942;28;20498;-82
2021/10/26 10:35:59;;;;;;;29.17;26.60;;;;;;;;;;5096336;28;20448;-82
2021/10/26 10:38:27;;;;;;;30.67;28.47;;;;;;;;;;5096647;28;20423;-82
2021/10/26 10:41:09;;;;;;;29.90;27.60;;;;;;;;;;5096460;28;20437;-82
2021/10/26 10:43:39;;;;;;;31.40;29.10;;;;;;;;;;5095917;28;20491;-82
2021/10/26 10:46:06;;;;;;;29.83;27.13;;;;;;;;;;5096455;28;20481;-81
2021/10/26 10:48:34;;;;;;;30.90;28.37;;;;;;;;;;5096143;28;21104;-82
2021/10/26 10:51:09;;;;;;;30.30;28.00;;;;;;;;;;5096027;28;20982;-82
2021/10/26 10:53:36;;;;;;;29.17;26.97;;;;;;;;;;5096437;28;20453;-82
2021/10/26 10:56:14;;;;;;;30.27;28.17;;;;;;;;;;5096211;28;20426;-83
2021/10/26 10:58:43;;;;;;;31.20;28.27;;;;;;;;;;5096248;28;20457;-83
2021/10/26 11:01:30;;;;;;;29.13;26.80;;;;;;;;;;5096236;28;20437;-83
2021/10/26 11:03:58;;;;;;;27.47;25.33;;;;;;;;;;5096345;28;20481;-83
2021/10/26 11:06:43;;;;;;;27.27;25.20;;;;;;;;;;5096228;28;20788;-82
2021/10/26 11:09:27;;;;;;;26.47;24.67;;;;;;;;;;5094655;28;20464;-83
2021/10/26 11:12:10;;;;;;;27.80;25.17;;;;;;;;;;5096126;28;20447;-82
2021/10/26 11:14:44;;;;;;;26.63;24.50;;;;;;;;;;5096492;28;20548;-82
2021/10/26 11:17:30;;;;;;;27.97;25.70;;;;;;;;;;5096044;28;20410;-84
2021/10/26 11:19:57;;;;;;;27.87;25.67;;;;;;;;;;5096187;28;20463;-86
2021/10/26 11:22:48;;;;;;;28.27;25.87;;;;;;;;;;5096258;28;20408;-91
2021/10/26 11:25:19;;;;;;;28.53;26.40;;;;;;;;;;5095968;28;20441;-81
2021/10/26 11:27:47;;;;;;;28.87;26.67;;;;;;;;;;5095500;28;20419;-83
2021/10/26 11:30:29;;;;;;;28.97;26.97;;;;;;;;;;5095923;28;20441;-82
2021/10/26 11:33:11;;;;;;;28.10;25.87;;;;;;;;;;5082985;28;20439;-82
2021/10/26 11:35:44;;;;;;;27.67;25.57;;;;;;;;;;5095370;28;20456;-83
2021/10/26 11:38:13;;;;;;;26.13;24.13;;;;;;;;;;5095510;28;20472;-83
2021/10/26 11:40:51;;;;;;;26.50;24.40;;;;;;;;;;5095390;28;20415;-83
2021/10/26 11:43:18;;;;;;;26.73;24.80;;;;;;;;;;5095323;28;20451;-83
2021/10/26 11:45:54;;;;;;;25.53;23.57;;;;;;;;;;5095192;28;20907;-82
2021/10/26 11:48:38;;;;;;;24.80;23.00;;;;;;;;;;5095520;28;20418;-83
2021/10/26 11:51:20;;;;;;;25.33;23.30;;;;;;;;;;5095678;28;20504;-83
2021/10/26 11:53:47;;;;;;;24.30;22.70;;;;;;;;;;5095610;28;20437;-85
2021/10/26 11:56:21;;;;;;;25.57;23.57;;;;;;;;;;5094774;28;20412;-86
2021/10/26 11:58:59;;;;;;;25.77;23.47;;;;;;;;;;5095673;28;20492;-85
2021/10/26 12:01:43;;;;;;;28.80;26.40;;;;;;;;;;5094936;28;20480;-86
2021/10/26 12:04:14;;;;;;;27.87;25.17;;;;;;;;;;5094429;28;20469;-86
2021/10/26 12:06:43;;;;;;;27.13;24.90;;;;;;;;;;5095712;28;20882;-89
2021/10/26 12:09:12;;;;;;;28.93;26.50;;;;;;;;;;5095547;28;20423;-90
2021/10/26 12:11:40;;;;;;;26.90;25.00;;;;;;;;;;5094584;28;20449;-86
2021/10/26 12:14:25;;;;;;;26.97;24.93;;;;;;;;;;5095532;28;20424;-86
2021/10/26 12:17:26;;;;;;;28.43;26.23;;;;;;;;;;5094704;28;20433;-85
2021/10/26 12:19:57;;;;;;;27.83;25.73;;;;;;;;;;5095548;28;20439;-85
2021/10/26 12:22:28;;;;;;;27.30;25.00;;;;;;;;;;5095124;28;20446;-84
2021/10/26 12:25:10;;;;;;;27.73;25.60;;;;;;;;;;5095468;28;20465;-84
2021/10/26 12:27:39;;;;;;;26.00;23.90;;;;;;;;;;5095081;28;20419;-85
2021/10/26 12:30:10;;;;;;;26.17;24.40;;;;;;;;;;5095180;28;20824;-85
2021/10/26 12:32:38;;;;;;;28.20;26.03;;;;;;;;;;5093853;28;20442;-85
2021/10/26 12:35:05;;;;;;;29.30;26.90;;;;;;;;;;5094294;28;20473;-84
2021/10/26 12:37:35;;;;;;;25.90;23.80;;;;;;;;;;5095159;28;20453;-86
2021/10/26 12:40:03;;;;;;;26.17;23.87;;;;;;;;;;5095254;28;20435;-86
2021/10/26 12:42:32;;;;;;;25.10;23.20;;;;;;;;;;5094681;28;20401;-86
2021/10/26 12:45:00;;;;;;;26.60;24.40;;;;;;;;;;5095612;28;20462;-86
2021/10/26 12:47:29;;;;;;;26.83;24.33;;;;;;;;;;5094285;28;20862;-86
2021/10/26 12:49:57;;;;;;;26.03;24.33;;;;;;;;;;5095102;28;20501;-85
2021/10/26 12:52:24;;;;;;;25.30;23.40;;;;;;;;;;5095088;28;20488;-86
2021/10/26 12:54:56;;;;;;;25.10;23.10;;;;;;;;;;5095383;28;20440;-86
2021/10/26 12:57:38;;;;;;;24.20;22.60;;;;;;;;;;5094811;28;20543;-85
2021/10/26 13:00:22;;;;;;;23.63;22.23;;;;;;;;;;5094838;28;20995;-86
2021/10/26 13:02:50;;;;;;;22.57;21.10;;;;;;;;;;5095060;28;20438;-85
2021/10/26 13:05:17;;;;;;;24.20;22.50;;;;;;;;;;5094532;28;20430;-86
2021/10/26 13:07:45;;;;;;;24.40;22.50;;;;;;;;;;5094456;28;20462;-84
2021/10/26 13:10:14;;;;;;;25.70;23.60;;;;;;;;;;5094575;28;20423;-85
2021/10/26 13:12:41;;;;;;;24.70;23.00;;;;;;;;;;5093607;28;20761;-86
2021/10/26 13:15:11;;;;;;;23.80;22.30;;;;;;;;;;5094621;28;20916;-87
2021/10/26 13:17:40;;;;;;;25.83;23.97;;;;;;;;;;5094728;28;20451;-86
2021/10/26 13:20:17;;;;;;;25.27;23.00;;;;;;;;;;5094370;28;20535;-87
2021/10/26 13:22:55;;;;;;;25.10;23.40;;;;;;;;;;5094557;28;20738;-86
2021/10/26 13:25:24;;;;;;;23.37;21.77;;;;;;;;;;5094297;28;20475;-87
2021/10/26 13:27:52;;;;;;;24.10;22.20;;;;;;;;;;5094317;28;20442;-87
2021/10/26 13:30:20;;;;;;;24.13;22.13;;;;;;;;;;5094544;28;20760;-88
2021/10/26 13:32:47;;;;;;;24.07;22.30;;;;;;;;;;5093608;28;20480;-88
2021/10/26 13:35:15;;;;;;;30.60;24.60;;;;;;;;;;5094779;28;20441;-88
2021/10/26 13:37:42;;;;;;;24.20;22.40;;;;;;;;;;5095316;28;20404;-88
2021/10/26 13:40:10;;;;;;;23.90;22.30;;;;;;;;;;5094186;28;20454;-87
2021/10/26 13:42:38;;;;;;;23.13;21.30;;;;;;;;;;5093108;28;20444;-88
2021/10/26 13:45:06;;;;;;;23.33;21.70;;;;;;;;;;5094402;28;20489;-87
2021/10/26 13:47:40;;;;;;;24.10;22.30;;;;;;;;;;5092752;28;20442;-87
2021/10/26 13:50:09;;;;;;;24.47;22.40;;;;;;;;;;5094144;28;20452;-86
2021/10/26 13:52:37;;;;;;;22.30;20.90;;;;;;;;;;5092473;28;20430;-83
2021/10/26 13:55:05;;;;;;;24.07;22.30;;;;;;;;;;5093511;28;20966;-81
2021/10/26 13:57:32;;;;;;;22.40;20.83;;;;;;;;;;5093367;28;20415;-83
2021/10/26 14:00:09;;;;;;;24.17;21.93;;;;;;;;;;5093222;28;20474;-83
2021/10/26 14:02:37;;;;;;;22.87;21.03;;;;;;;;;;5093059;28;20415;-83
2021/10/26 14:05:05;;;;;;;22.77;21.23;;;;;;;;;;5091928;28;20493;-83
2021/10/26 14:07:32;;;;;;;23.03;21.20;;;;;;;;;;5093339;28;20415;-83
2021/10/26 14:10:00;;;;;;;21.97;20.53;;;;;;;;;;5093297;28;20448;-83
2021/10/26 14:12:27;;;;;;;23.17;21.43;;;;;;;;;;5093071;28;20452;-83
2021/10/26 14:14:54;;;;;;;22.97;21.23;;;;;;;;;;5093006;28;20419;-82
2021/10/26 14:17:23;;;;;;;22.00;20.70;;;;;;;;;;5091960;28;20440;-82
2021/10/26 14:19:51;;;;;;;22.93;21.13;;;;;;;;;;5092935;28;20415;-82
2021/10/26 14:22:19;;;;;;;21.37;19.97;;;;;;;;;;5092610;28;20909;-82
2021/10/26 14:24:46;;;;;;;21.20;19.70;;;;;;;;;;5092598;28;20492;-83
2021/10/26 14:27:13;;;;;;;22.40;20.87;;;;;;;;;;5092746;28;20427;-82
2021/10/26 14:29:41;;;;;;;22.60;21.10;;;;;;;;;;5092946;28;20431;-83
2021/10/26 14:32:08;;;;;;;23.40;21.87;;;;;;;;;;5092743;28;20441;-83
2021/10/26 14:34:39;;;;;;;24.57;22.77;;;;;;;;;;5093029;28;20472;-82
2021/10/26 14:37:12;;;;;;;26.20;23.50;;;;;;;;;;5092872;28;20437;-82